Time;durP1;ratioP1;P1;durP2;ratioP2;P2;SDS_P1;SDS_P2;PMS_P1;PMS_P2;Temp;Humidity;BMP_temperature;BMP_pressure;BME280_temperature;BME280_humidity;BME280_pressure;Samples;Min_cycle;Max_cycle;Signal;HPM_P1;HPM_P2
2022/08/03 00:03:00;;;;;;;;;;;19.40;99.90;;;;;;4953117;28;19933;-81
2022/08/03 00:05:31;;;;;;;;;;;19.40;99.90;;;;;;4954510;28;19949;-81
2022/08/03 00:07:57;;;;;;;;;;;19.00;99.90;;;;;;4941009;28;19937;-82
2022/08/03 00:10:33;;;;;;;;;;;19.40;99.90;;;;;;4947793;28;19926;-81
2022/08/03 00:13:20;;;;;;;;;;;19.40;99.90;;;;;;4954406;28;19934;-81
2022/08/03 00:16:04;;;;;;;;;;;19.40;99.90;;;;;;4943722;28;19926;-81
2022/08/03 00:18:36;;;;;;;;;;;19.40;99.90;;;;;;4952633;28;20519;-81
2022/08/03 00:24:09;;;;;;;;;;;19.50;99.90;;;;;;4953742;28;20188;-81
2022/08/03 00:26:35;;;;;;;;;;;19.40;99.90;;;;;;4960850;23;19932;-80
2022/08/03 00:29:02;;;;;;;;;;;19.30;99.90;;;;;;4952547;28;19934;-79
2022/08/03 00:31:51;;;;;;;;;;;19.40;99.90;;;;;;4950323;28;20201;-81
2022/08/03 00:37:44;;;;;;;;;;;19.30;99.90;;;;;;4985389;28;19971;-82
2022/08/03 00:40:13;;;;;;;;;;;19.30;99.90;;;;;;4944421;28;20025;-79
2022/08/03 00:43:04;;;;;;;;;;;19.30;99.90;;;;;;4978547;28;20285;-78
2022/08/03 00:45:31;;;;;;;;;;;19.30;99.90;;;;;;4982167;28;19930;-79
2022/08/03 00:47:57;;;;;;;;;;;19.30;99.90;;;;;;4965289;28;20590;-79
2022/08/03 00:50:27;;;;;;;;;;;19.30;99.90;;;;;;4976253;28;19930;-78
2022/08/03 00:52:55;;;;;;;;;;;19.30;99.90;;;;;;4969046;28;19933;-80
2022/08/03 00:55:21;;;;;;;;;;;19.20;99.90;;;;;;4971701;28;19937;-81
2022/08/03 00:57:47;;;;;;;;;;;19.20;99.90;;;;;;4960512;28;19926;-80
2022/08/03 01:00:16;;;;;;;;;;;19.20;99.90;;;;;;4979329;28;20165;-80
2022/08/03 01:02:41;;;;;;;;;;;19.20;99.90;;;;;;4965507;28;19926;-79
2022/08/03 01:05:12;;;;;;;;;;;19.20;99.90;;;;;;4958288;28;19972;-81
2022/08/03 01:07:57;;;;;;;;;;;19.10;99.90;;;;;;4939983;28;19933;-79
2022/08/03 01:10:25;;;;;;;;;;;19.20;99.90;;;;;;4967826;28;19926;-80
2022/08/03 01:12:52;;;;;;;;;;;19.10;99.90;;;;;;4951034;28;19929;-80
2022/08/03 01:15:19;;;;;;;;;;;19.10;99.90;;;;;;4969264;28;20288;-79
2022/08/03 01:17:45;;;;;;;;;;;19.10;99.90;;;;;;4980391;28;19926;-79
2022/08/03 01:20:13;;;;;;;;;;;19.10;99.90;;;;;;4954801;28;20395;-79
2022/08/03 01:22:57;;;;;;;;;;;19.10;99.90;;;;;;4974384;28;19965;-80
2022/08/03 01:25:29;;;;;;;;;;;19.10;99.90;;;;;;4960544;28;19973;-82
2022/08/03 01:28:21;;;;;;;;;;;19.00;99.90;;;;;;4972256;28;19980;-78
2022/08/03 01:30:47;;;;;;;;;;;19.00;99.90;;;;;;4956088;28;19933;-80
2022/08/03 01:33:23;;;;;;;;;;;19.00;99.90;;;;;;4965451;28;19925;-79
2022/08/03 01:35:59;;;;;;;;;;;19.00;99.90;;;;;;4971582;28;20297;-79
2022/08/03 01:38:49;;;;;;;;;;;19.00;99.90;;;;;;4980520;28;20024;-82
2022/08/03 01:41:20;;;;;;;;;;;19.00;99.90;;;;;;4967461;28;19926;-79
2022/08/03 01:43:48;;;;;;;;;;;18.90;99.90;;;;;;4949689;28;20376;-78
2022/08/03 01:46:15;;;;;;;;;;;18.90;99.90;;;;;;4983995;28;20080;-85
2022/08/03 01:48:42;;;;;;;;;;;18.90;99.90;;;;;;4975445;28;19930;-79
2022/08/03 01:51:08;;;;;;;;;;;18.90;99.90;;;;;;4968022;28;20034;-80
2022/08/03 01:53:34;;;;;;;;;;;18.90;99.90;;;;;;4976143;28;19985;-79
2022/08/03 01:56:06;;;;;;;;;;;18.90;99.90;;;;;;4986397;28;19925;-80
2022/08/03 01:58:35;;;;;;;;;;;18.90;99.90;;;;;;4953395;28;19926;-80
2022/08/03 02:01:02;;;;;;;;;;;18.90;99.90;;;;;;4985413;28;19948;-80
2022/08/03 02:03:28;;;;;;;;;;;18.90;99.90;;;;;;4963710;28;19930;-80
2022/08/03 02:08:59;;;;;;;;;;;18.90;99.90;;;;;;5350575;23;19933;-79
2022/08/03 02:14:59;;;;;;;;;;;18.70;99.90;;;;;;4951067;28;19930;-80
2022/08/03 02:17:47;;;;;;;;;;;18.50;99.90;;;;;;4986819;28;19940;-80
2022/08/03 02:20:17;;;;;;;;;;;18.80;99.90;;;;;;4965191;28;19926;-79
2022/08/03 02:22:52;;;;;;;;;;;18.80;99.90;;;;;;4949096;28;19930;-80
2022/08/03 02:25:25;;;;;;;;;;;18.80;99.90;;;;;;4945043;28;20032;-82
2022/08/03 02:27:56;;;;;;;;;;;18.80;99.90;;;;;;4981968;28;20292;-81
2022/08/03 02:30:26;;;;;;;;;;;18.80;99.90;;;;;;4939087;28;20054;-79
2022/08/03 02:33:28;;;;;;;;;;;18.70;99.90;;;;;;4946408;28;19925;-78
2022/08/03 02:35:55;;;;;;;;;;;18.70;99.90;;;;;;4930653;28;19926;-80
2022/08/03 02:38:25;;;;;;;;;;;18.70;99.90;;;;;;4941309;28;19929;-80
2022/08/03 02:41:03;;;;;;;;;;;18.70;99.90;;;;;;4969824;28;19926;-79
2022/08/03 02:43:29;;;;;;;;;;;18.70;99.90;;;;;;4962128;28;19936;-80
2022/08/03 02:45:57;;;;;;;;;;;18.70;99.90;;;;;;4953100;28;20454;-80
2022/08/03 02:48:26;;;;;;;;;;;18.20;99.90;;;;;;4951757;28;19926;-80
2022/08/03 02:54:00;;;;;;;;;;;18.60;99.90;;;;;;4960461;28;20106;-81
2022/08/03 02:56:36;;;;;;;;;;;18.60;99.90;;;;;;4952717;28;19973;-80
2022/08/03 02:59:13;;;;;;;;;;;18.60;99.90;;;;;;4952796;28;20390;-80
2022/08/03 03:01:43;;;;;;;;;;;18.60;99.90;;;;;;4958177;28;19926;-79
2022/08/03 03:04:26;;;;;;;;;;;18.60;99.90;;;;;;4948684;28;20084;-82
2022/08/03 03:07:10;;;;;;;;;;;18.60;99.90;;;;;;4969702;28;20057;-80
2022/08/03 03:10:05;;;;;;;;;;;18.70;99.90;;;;;;4938089;28;19926;-79
2022/08/03 03:12:59;;;;;;;;;;;18.60;99.90;;;;;;4953520;28;19926;-82
2022/08/03 03:15:34;;;;;;;;;;;18.60;99.90;;;;;;4950837;28;19926;-84
2022/08/03 03:18:16;;;;;;;;;;;18.60;99.90;;;;;;4966871;28;19974;-79
2022/08/03 03:20:59;;;;;;;;;;;18.50;99.90;;;;;;4971715;28;19938;-80
2022/08/03 03:23:27;;;;;;;;;;;18.20;99.90;;;;;;4976005;28;20355;-81
2022/08/03 03:26:21;;;;;;;;;;;18.50;99.90;;;;;;4940849;28;20375;-80
2022/08/03 03:32:00;;;;;;;;;;;18.40;99.90;;;;;;4966447;28;20032;-80
2022/08/03 03:34:40;;;;;;;;;;;18.50;99.90;;;;;;4949271;28;20531;-81
2022/08/03 03:40:46;;;;;;;;;;;18.20;99.90;;;;;;4931790;29;20742;-81
2022/08/03 03:43:17;;;;;;;;;;;18.40;99.90;;;;;;4955365;28;19964;-83
2022/08/03 03:45:46;;;;;;;;;;;18.30;99.90;;;;;;4957750;28;20331;-83
2022/08/03 03:48:18;;;;;;;;;;;18.60;99.90;;;;;;4943618;28;20508;-81
2022/08/03 03:51:08;;;;;;;;;;;18.40;99.90;;;;;;4935081;28;20028;-81
2022/08/03 03:53:41;;;;;;;;;;;18.40;99.90;;;;;;4951700;28;20024;-82
2022/08/03 03:56:08;;;;;;;;;;;18.40;99.90;;;;;;4947147;28;20033;-79
2022/08/03 03:58:56;;;;;;;;;;;18.30;99.90;;;;;;4953114;28;19937;-82
2022/08/03 04:01:43;;;;;;;;;;;18.30;99.90;;;;;;4952405;28;19979;-81
2022/08/03 04:13:32;;;;;;;;;;;18.40;99.90;;;;;;4983597;28;19926;-84
2022/08/03 04:19:37;;;;;;;;;;;18.40;99.90;;;;;;4987114;28;19977;-80
2022/08/03 04:22:05;;;;;;;;;;;18.40;99.90;;;;;;4943292;28;19926;-84
2022/08/03 04:24:58;;;;;;;;;;;17.60;99.90;;;;;;4949538;28;19933;-80
2022/08/03 04:27:35;;;;;;;;;;;18.50;99.90;;;;;;4978485;28;19961;-79
2022/08/03 04:36:39;;;;;;;;;;;18.50;99.90;;;;;;4906330;29;19978;-83
2022/08/03 04:39:32;;;;;;;;;;;18.10;99.90;;;;;;4943248;28;20303;-83
2022/08/03 04:42:13;;;;;;;;;;;18.10;99.90;;;;;;4948949;28;20372;-82
2022/08/03 04:44:59;;;;;;;;;;;18.60;99.90;;;;;;4958587;28;19976;-81
2022/08/03 04:47:44;;;;;;;;;;;18.60;99.90;;;;;;4968513;28;20016;-82
2022/08/03 04:50:31;;;;;;;;;;;18.60;99.90;;;;;;4949945;28;19941;-83
2022/08/03 04:53:06;;;;;;;;;;;18.70;99.90;;;;;;4949005;28;20332;-81
2022/08/03 04:56:24;;;;;;;;;;;18.70;99.90;;;;;;4967588;28;20000;-81
2022/08/03 04:58:53;;;;;;;;;;;18.40;99.90;;;;;;4953501;28;20459;-82
2022/08/03 05:01:48;;;;;;;;;;;18.90;99.90;;;;;;4951706;28;19977;-81
2022/08/03 05:04:46;;;;;;;;;;;;;;;;;;;;;
2022/08/03 05:08:00;;;;;;;;;;;18.90;99.90;;;;;;4981145;28;19934;-83
2022/08/03 05:13:45;;;;;;;;;;;18.90;99.90;;;;;;4968543;28;20272;-81
2022/08/03 05:16:21;;;;;;;;;;;18.80;99.90;;;;;;4953201;28;19987;-80
2022/08/03 05:21:53;;;;;;;;;;;19.00;99.90;;;;;;4963383;28;19972;-82
2022/08/03 05:24:48;;;;;;;;;;;19.20;99.90;;;;;;4959777;28;20634;-82
2022/08/03 05:30:18;;;;;;;;;;;19.30;99.90;;;;;;4961541;28;19934;-81
2022/08/03 05:32:53;;;;;;;;;;;19.30;99.90;;;;;;4975546;28;19930;-84
2022/08/03 05:35:27;;;;;;;;;;;19.30;99.90;;;;;;4969604;28;19930;-81
2022/08/03 05:38:10;;;;;;;;;;;19.40;99.90;;;;;;4949091;28;19980;-86
2022/08/03 05:40:36;;;;;;;;;;;19.50;99.90;;;;;;4951289;28;19932;-81
2022/08/03 05:43:13;;;;;;;;;;;19.50;99.90;;;;;;4950522;28;19957;-83
2022/08/03 05:45:52;;;;;;;;;;;19.70;99.90;;;;;;4962023;28;19965;-82
2022/08/03 05:51:30;;;;;;;;;;;19.70;99.90;;;;;;4972210;28;19992;-82
2022/08/03 05:54:27;;;;;;;;;;;19.80;99.90;;;;;;4969644;28;19922;-80
2022/08/03 05:56:55;;;;;;;;;;;19.70;99.90;;;;;;4964560;28;19933;-83
2022/08/03 05:59:22;;;;;;;;;;;19.80;99.90;;;;;;4946783;28;19930;-82
2022/08/03 06:01:48;;;;;;;;;;;19.90;99.90;;;;;;4954214;28;19933;-80
2022/08/03 06:04:13;;;;;;;;;;;19.90;99.90;;;;;;4936343;28;20377;-82
2022/08/03 06:06:40;;;;;;;;;;;20.00;99.90;;;;;;4951258;28;20248;-78
2022/08/03 06:09:06;;;;;;;;;;;20.20;99.90;;;;;;4930423;28;20412;-78
2022/08/03 06:11:31;;;;;;;;;;;20.20;99.90;;;;;;4949864;28;19933;-82
2022/08/03 06:13:58;;;;;;;;;;;20.40;99.90;;;;;;4934879;28;20312;-82
2022/08/03 06:16:24;;;;;;;;;;;20.50;99.90;;;;;;4949707;28;19933;-82
2022/08/03 06:18:50;;;;;;;;;;;21.00;99.90;;;;;;4950416;28;19930;-80
2022/08/03 06:21:16;;;;;;;;;;;21.10;99.90;;;;;;4946863;28;20013;-79
2022/08/03 06:23:42;;;;;;;;;;;21.20;99.90;;;;;;4945380;28;20221;-80
2022/08/03 06:26:08;;;;;;;;;;;21.30;99.90;;;;;;4963691;28;20034;-79
2022/08/03 06:28:34;;;;;;;;;;;21.40;99.90;;;;;;4935208;28;20018;-79
2022/08/03 06:31:00;;;;;;;;;;;21.40;99.90;;;;;;4943794;28;20008;-81
2022/08/03 06:33:26;;;;;;;;;;;21.50;99.90;;;;;;4969648;28;19926;-79
2022/08/03 06:36:04;;;;;;;;;;;21.50;99.90;;;;;;4953188;28;19938;-80
2022/08/03 06:38:32;;;;;;;;;;;21.60;99.90;;;;;;4944141;28;19929;-80
2022/08/03 06:40:58;;;;;;;;;;;21.50;99.90;;;;;;4954116;28;19989;-81
2022/08/03 06:43:45;;;;;;;;;;;21.70;99.90;;;;;;4949604;28;19977;-79
2022/08/03 06:46:12;;;;;;;;;;;21.70;99.90;;;;;;4963488;28;20232;-80
2022/08/03 06:48:38;;;;;;;;;;;21.90;99.90;;;;;;4961593;28;19969;-79
2022/08/03 06:51:04;;;;;;;;;;;22.10;99.90;;;;;;4935249;28;19985;-79
2022/08/03 06:53:40;;;;;;;;;;;22.40;99.90;;;;;;4961042;28;19925;-80
2022/08/03 06:56:32;;;;;;;;;;;22.50;99.90;;;;;;4968763;28;20098;-82
2022/08/03 06:59:17;;;;;;;;;;;22.60;99.90;;;;;;4980743;28;20075;-80
2022/08/03 07:02:06;;;;;;;;;;;22.70;99.90;;;;;;4983308;28;20312;-82
2022/08/03 07:04:35;;;;;;;;;;;22.90;99.90;;;;;;4938823;28;20273;-82
2022/08/03 07:07:01;;;;;;;;;;;23.10;99.90;;;;;;4947085;28;20025;-81
2022/08/03 07:09:29;;;;;;;;;;;23.30;99.90;;;;;;4944889;28;20012;-83
2022/08/03 07:11:57;;;;;;;;;;;23.70;99.90;;;;;;4966315;28;20022;-81
2022/08/03 07:14:23;;;;;;;;;;;24.40;99.90;;;;;;4950000;28;19926;-78
2022/08/03 07:16:49;;;;;;;;;;;25.40;99.90;;;;;;4960980;28;19936;-78
2022/08/03 07:19:15;;;;;;;;;;;26.10;99.90;;;;;;4948152;28;20410;-80
2022/08/03 07:21:44;;;;;;;;;;;27.10;99.90;;;;;;4936821;28;19956;-83
2022/08/03 07:24:10;;;;;;;;;;;28.00;99.90;;;;;;4957702;28;20101;-79
2022/08/03 07:26:36;;;;;;;;;;;28.70;99.90;;;;;;4949050;28;19937;-80
2022/08/03 07:29:02;;;;;;;;;;;29.50;99.90;;;;;;4951429;28;20331;-81
2022/08/03 07:31:44;;;;;;;;;;;30.00;99.90;;;;;;4973919;28;19930;-79
2022/08/03 07:34:13;;;;;;;;;;;30.40;99.90;;;;;;4965336;28;20410;-81
2022/08/03 07:36:53;;;;;;;;;;;30.80;99.90;;;;;;4918007;28;19969;-80
2022/08/03 07:39:43;;;;;;;;;;;31.10;99.90;;;;;;4992635;28;19930;-83
2022/08/03 07:43:04;;;;;;;;;;;31.40;99.90;;;;;;4971352;28;19929;-84
2022/08/03 07:45:57;;;;;;;;;;;31.60;99.90;;;;;;4960724;28;19930;-84
2022/08/03 07:49:23;;;;;;;;;;;31.80;97.30;;;;;;4958662;23;20142;-81
2022/08/03 07:55:03;;;;;;;;;;;32.10;96.70;;;;;;4973070;28;20001;-82
2022/08/03 07:57:55;;;;;;;;;;;32.30;96.20;;;;;;5022683;23;19933;-81
2022/08/03 08:00:37;;;;;;;;;;;32.40;94.80;;;;;;4989225;28;20314;-81
2022/08/03 08:03:03;;;;;;;;;;;32.50;94.30;;;;;;4975507;28;19933;-80
2022/08/03 08:05:34;;;;;;;;;;;32.80;92.80;;;;;;4985573;28;19929;-87
2022/08/03 08:08:09;;;;;;;;;;;32.90;92.60;;;;;;4972536;28;19933;-82
2022/08/03 08:10:38;;;;;;;;;;;32.80;91.90;;;;;;4966063;28;19978;-82
2022/08/03 08:13:10;;;;;;;;;;;32.70;91.90;;;;;;4976295;28;20009;-81
2022/08/03 08:15:55;;;;;;;;;;;32.70;90.50;;;;;;4997071;28;19928;-85
2022/08/03 08:18:46;;;;;;;;;;;32.80;91.90;;;;;;4957986;28;19933;-83
2022/08/03 08:21:43;;;;;;;;;;;32.90;91.60;;;;;;4993617;28;19925;-85
2022/08/03 08:24:10;;;;;;;;;;;33.20;91.70;;;;;;4969703;28;19929;-81
2022/08/03 08:26:40;;;;;;;;;;;33.00;92.50;;;;;;4968107;28;20032;-85
2022/08/03 08:29:24;;;;;;;;;;;32.90;90.70;;;;;;4960600;28;19930;-81
2022/08/03 08:31:50;;;;;;;;;;;33.00;90.70;;;;;;4987565;28;20192;-82
2022/08/03 08:34:16;;;;;;;;;;;32.80;90.40;;;;;;4956993;28;20021;-82
2022/08/03 08:36:43;;;;;;;;;;;33.00;91.00;;;;;;4973855;28;20016;-81
2022/08/03 08:39:09;;;;;;;;;;;33.10;90.50;;;;;;4966049;28;20028;-83
2022/08/03 08:41:34;;;;;;;;;;;32.80;90.00;;;;;;4963851;28;20024;-81
2022/08/03 08:44:01;;;;;;;;;;;32.90;90.10;;;;;;4984834;28;19936;-85
2022/08/03 08:46:29;;;;;;;;;;;33.10;90.50;;;;;;4980812;28;20437;-80
2022/08/03 08:48:55;;;;;;;;;;;32.90;89.40;;;;;;4990330;28;20350;-86
2022/08/03 08:51:23;;;;;;;;;;;32.90;90.50;;;;;;4974160;28;20495;-85
2022/08/03 08:53:52;;;;;;;;;;;32.70;89.10;;;;;;4984632;28;19933;-82
2022/08/03 08:56:19;;;;;;;;;;;32.60;90.60;;;;;;4972109;28;19936;-86
2022/08/03 08:58:51;;;;;;;;;;;32.50;90.80;;;;;;4975228;28;19935;-84
2022/08/03 09:01:19;;;;;;;;;;;31.90;90.40;;;;;;4987343;28;19933;-85
2022/08/03 09:03:52;;;;;;;;;;;31.50;92.00;;;;;;4969477;28;19958;-84
2022/08/03 09:06:22;;;;;;;;;;;31.10;92.50;;;;;;4974072;28;19921;-82
2022/08/03 09:08:48;;;;;;;;;;;30.70;93.60;;;;;;4989445;28;19930;-82
2022/08/03 09:11:19;;;;;;;;;;;30.70;95.10;;;;;;4971929;28;19925;-85
2022/08/03 09:13:45;;;;;;;;;;;30.50;95.00;;;;;;4984490;28;19978;-81
2022/08/03 09:16:17;;;;;;;;;;;30.30;95.60;;;;;;4973916;28;19968;-87
2022/08/03 09:19:36;;;;;;;;;;;30.10;97.10;;;;;;4989753;28;20593;-81
2022/08/03 09:22:08;;;;;;;;;;;29.90;98.90;;;;;;4975327;28;19940;-80
2022/08/03 09:24:56;;;;;;;;;;;29.60;99.50;;;;;;4974843;28;20261;-83
2022/08/03 09:27:21;;;;;;;;;;;29.60;99.90;;;;;;4952768;28;19925;-82
2022/08/03 09:30:11;;;;;;;;;;;29.60;99.90;;;;;;4965613;28;19929;-80
2022/08/03 09:32:37;;;;;;;;;;;29.60;99.90;;;;;;4972973;28;20015;-84
2022/08/03 09:35:03;;;;;;;;;;;29.50;99.90;;;;;;4943008;28;19926;-83
2022/08/03 09:38:03;;;;;;;;;;;29.50;99.90;;;;;;4925372;29;19935;-83
2022/08/03 09:40:35;;;;;;;;;;;29.60;99.90;;;;;;4925078;29;19927;-84
2022/08/03 09:43:01;;;;;;;;;;;29.70;99.90;;;;;;4926227;29;20603;-82
2022/08/03 09:45:27;;;;;;;;;;;29.60;99.90;;;;;;4928877;29;19930;-84
2022/08/03 09:47:53;;;;;;;;;;;29.70;99.90;;;;;;4914803;29;19958;-83
2022/08/03 09:50:24;;;;;;;;;;;29.60;99.90;;;;;;4900792;29;19931;-83
2022/08/03 09:56:15;;;;;;;;;;;29.70;99.90;;;;;;4937037;29;19989;-86
2022/08/03 09:59:01;;;;;;;;;;;29.80;99.90;;;;;;4941086;29;20083;-81
2022/08/03 10:02:00;;;;;;;;;;;29.90;99.90;;;;;;4924365;29;19926;-85
2022/08/03 10:04:44;;;;;;;;;;;30.10;99.90;;;;;;4914221;29;20049;-81
2022/08/03 10:07:28;;;;;;;;;;;30.00;99.90;;;;;;4941576;28;19930;-81
2022/08/03 10:10:31;;;;;;;;;;;30.10;99.90;;;;;;4967648;28;20292;-79
2022/08/03 10:12:57;;;;;;;;;;;30.10;99.90;;;;;;4984230;28;20316;-80
2022/08/03 10:15:30;;;;;;;;;;;30.30;99.90;;;;;;4978569;28;20375;-86
2022/08/03 10:17:56;;;;;;;;;;;30.40;99.90;;;;;;4974636;28;19932;-80
2022/08/03 10:20:24;;;;;;;;;;;30.50;99.90;;;;;;4988190;28;20096;-81
2022/08/03 10:22:51;;;;;;;;;;;30.50;99.90;;;;;;4973370;28;20037;-82
2022/08/03 10:25:20;;;;;;;;;;;30.40;99.90;;;;;;4986577;28;19955;-82
2022/08/03 10:27:48;;;;;;;;;;;30.50;99.90;;;;;;4988300;28;20348;-82
2022/08/03 10:30:14;;;;;;;;;;;30.60;99.90;;;;;;4980218;28;19941;-83
2022/08/03 10:32:44;;;;;;;;;;;30.60;99.90;;;;;;4973198;28;19929;-83
2022/08/03 10:35:12;;;;;;;;;;;30.60;99.90;;;;;;4972554;28;19925;-80
2022/08/03 10:37:42;;;;;;;;;;;30.70;99.90;;;;;;4964903;28;19992;-79
2022/08/03 10:40:20;;;;;;;;;;;30.80;99.90;;;;;;4985633;28;19929;-83
2022/08/03 10:42:50;;;;;;;;;;;30.90;99.90;;;;;;4989592;28;19951;-82
2022/08/03 10:45:20;;;;;;;;;;;31.00;99.90;;;;;;4968064;28;20015;-81
2022/08/03 10:47:47;;;;;;;;;;;31.00;99.90;;;;;;4966381;28;19929;-84
2022/08/03 10:50:13;;;;;;;;;;;31.10;99.70;;;;;;4960996;28;19922;-81
2022/08/03 10:53:07;;;;;;;;;;;31.00;99.90;;;;;;4979406;28;19956;-79
2022/08/03 10:58:37;;;;;;;;;;;30.40;99.90;;;;;;4981173;28;20103;-83
2022/08/03 11:01:05;;;;;;;;;;;30.30;99.90;;;;;;4971339;28;19929;-80
2022/08/03 11:03:32;;;;;;;;;;;30.10;99.90;;;;;;4948048;28;20038;-81
2022/08/03 11:06:27;;;;;;;;;;;30.10;99.90;;;;;;4991671;28;19925;-83
2022/08/03 11:09:08;;;;;;;;;;;30.00;99.90;;;;;;4982906;28;20379;-81
2022/08/03 11:11:34;;;;;;;;;;;30.10;99.90;;;;;;4992651;28;19933;-81
2022/08/03 11:14:02;;;;;;;;;;;30.20;99.90;;;;;;4982265;28;19926;-81
2022/08/03 11:16:28;;;;;;;;;;;30.30;99.90;;;;;;4972685;28;19929;-81
2022/08/03 11:18:55;;;;;;;;;;;30.40;99.90;;;;;;4958621;28;19929;-84
2022/08/03 11:21:40;;;;;;;;;;;30.60;99.90;;;;;;4976111;28;19925;-85
2022/08/03 11:24:06;;;;;;;;;;;30.80;99.90;;;;;;4991608;28;19926;-78
2022/08/03 11:26:33;;;;;;;;;;;30.90;99.70;;;;;;4956800;28;19933;-85
2022/08/03 11:29:17;;;;;;;;;;;31.00;99.90;;;;;;4970441;28;20402;-80
2022/08/03 11:31:44;;;;;;;;;;;31.00;99.00;;;;;;4972092;28;19933;-81
2022/08/03 11:34:10;;;;;;;;;;;31.30;99.50;;;;;;5009295;28;19933;-80
2022/08/03 11:36:55;;;;;;;;;;;31.40;97.70;;;;;;4991692;28;19926;-80
2022/08/03 11:39:21;;;;;;;;;;;31.30;96.60;;;;;;4982621;28;19932;-80
2022/08/03 11:41:47;;;;;;;;;;;31.20;97.00;;;;;;4991826;28;19937;-82
2022/08/03 11:44:31;;;;;;;;;;;31.10;97.30;;;;;;4964605;28;20375;-85
2022/08/03 11:46:58;;;;;;;;;;;31.00;97.50;;;;;;4984349;28;20360;-82
2022/08/03 11:49:24;;;;;;;;;;;31.00;96.30;;;;;;4984160;28;19929;-79
2022/08/03 11:51:53;;;;;;;;;;;31.00;97.00;;;;;;4985821;28;20021;-80
2022/08/03 11:54:26;;;;;;;;;;;31.00;98.30;;;;;;4990123;28;20036;-81
2022/08/03 11:56:52;;;;;;;;;;;30.70;96.30;;;;;;4972274;28;19926;-83
2022/08/03 11:59:30;;;;;;;;;;;30.80;97.80;;;;;;4942310;28;20407;-81
2022/08/03 12:02:04;;;;;;;;;;;30.80;96.90;;;;;;4987881;28;20376;-79
2022/08/03 12:04:30;;;;;;;;;;;30.70;97.50;;;;;;4979166;28;20300;-83
2022/08/03 12:07:03;;;;;;;;;;;30.50;96.20;;;;;;4982671;28;19929;-82
2022/08/03 12:09:29;;;;;;;;;;;30.40;98.50;;;;;;4990737;28;19937;-79
2022/08/03 12:11:55;;;;;;;;;;;30.10;97.20;;;;;;4975465;28;19926;-80
2022/08/03 12:14:20;;;;;;;;;;;30.00;97.00;;;;;;4958108;28;19926;-83
2022/08/03 12:16:47;;;;;;;;;;;29.90;98.30;;;;;;4975755;23;19929;-80
2022/08/03 12:19:13;;;;;;;;;;;30.00;97.40;;;;;;4988278;28;20138;-82
2022/08/03 12:21:46;;;;;;;;;;;29.90;99.10;;;;;;4986046;28;20171;-84
2022/08/03 12:24:12;;;;;;;;;;;29.80;98.10;;;;;;4967229;28;20364;-88
2022/08/03 12:26:44;;;;;;;;;;;29.70;98.60;;;;;;4976829;28;20400;-79
2022/08/03 12:29:20;;;;;;;;;;;29.60;99.20;;;;;;4949983;28;20135;-80
2022/08/03 12:31:46;;;;;;;;;;;29.40;99.90;;;;;;4970572;28;19981;-82
2022/08/03 12:34:45;;;;;;;;;;;29.20;98.40;;;;;;4968453;28;19930;-85
2022/08/03 12:37:18;;;;;;;;;;;29.20;99.90;;;;;;4951425;28;19926;-80
2022/08/03 12:39:50;;;;;;;;;;;29.20;99.70;;;;;;4955319;28;19929;-80
2022/08/03 12:42:35;;;;;;;;;;;29.20;99.90;;;;;;4974081;28;20085;-83
2022/08/03 12:45:20;;;;;;;;;;;29.20;99.20;;;;;;4950493;28;19926;-80
2022/08/03 12:47:50;;;;;;;;;;;29.10;99.50;;;;;;4965788;28;19948;-80
2022/08/03 12:50:26;;;;;;;;;;;29.00;99.90;;;;;;4971681;28;19973;-79
2022/08/03 12:52:54;;;;;;;;;;;28.90;99.90;;;;;;4959411;28;19951;-82
2022/08/03 12:55:32;;;;;;;;;;;28.80;99.90;;;;;;4955816;28;19940;-80
2022/08/03 12:57:58;;;;;;;;;;;28.60;99.90;;;;;;4940365;28;19926;-83
2022/08/03 13:00:33;;;;;;;;;;;28.60;99.90;;;;;;4958815;28;20019;-78
2022/08/03 13:03:03;;;;;;;;;;;28.60;99.90;;;;;;4967481;28;20101;-79
2022/08/03 13:05:30;;;;;;;;;;;28.50;99.90;;;;;;4958201;28;19932;-80
2022/08/03 13:07:56;;;;;;;;;;;28.40;99.90;;;;;;4973041;28;19955;-78
2022/08/03 13:10:31;;;;;;;;;;;28.30;99.90;;;;;;4989435;28;20338;-77
2022/08/03 13:12:58;;;;;;;;;;;28.20;99.90;;;;;;4972662;28;19926;-78
2022/08/03 13:15:44;;;;;;;;;;;28.10;99.90;;;;;;4954874;28;20020;-77
2022/08/03 13:18:10;;;;;;;;;;;28.10;99.90;;;;;;4959156;28;19930;-80
2022/08/03 13:20:43;;;;;;;;;;;28.10;99.90;;;;;;4954915;28;20041;-82
2022/08/03 13:23:09;;;;;;;;;;;28.00;99.90;;;;;;4971685;28;19930;-79
2022/08/03 13:25:37;;;;;;;;;;;28.00;99.90;;;;;;4964839;28;20333;-78
2022/08/03 13:28:10;;;;;;;;;;;27.90;99.90;;;;;;4983611;28;19936;-80
2022/08/03 13:30:36;;;;;;;;;;;27.90;99.90;;;;;;4971511;28;19936;-82
2022/08/03 13:33:15;;;;;;;;;;;27.90;99.90;;;;;;4976015;28;19960;-79
2022/08/03 13:35:42;;;;;;;;;;;27.90;99.90;;;;;;4959071;28;19986;-80
2022/08/03 13:38:08;;;;;;;;;;;27.80;99.90;;;;;;4953185;28;19926;-82
2022/08/03 13:40:34;;;;;;;;;;;27.80;99.90;;;;;;4963453;28;19976;-81
2022/08/03 13:43:00;;;;;;;;;;;27.70;99.90;;;;;;4973038;28;19934;-78
2022/08/03 13:45:26;;;;;;;;;;;27.70;99.90;;;;;;4967609;28;19972;-78
2022/08/03 13:47:54;;;;;;;;;;;27.70;99.90;;;;;;4976920;28;19934;-81
2022/08/03 13:50:25;;;;;;;;;;;27.60;99.90;;;;;;4982341;28;19976;-80
2022/08/03 13:52:50;;;;;;;;;;;27.60;99.90;;;;;;4975467;28;20012;-83
2022/08/03 13:55:16;;;;;;;;;;;27.60;99.90;;;;;;4934668;28;20018;-78
2022/08/03 13:57:42;;;;;;;;;;;27.60;99.90;;;;;;4942792;28;20312;-80
2022/08/03 14:00:08;;;;;;;;;;;27.60;99.90;;;;;;4964487;28;19929;-80
2022/08/03 14:02:35;;;;;;;;;;;27.60;99.90;;;;;;4941655;28;19937;-80
2022/08/03 14:05:02;;;;;;;;;;;27.50;99.90;;;;;;4965040;28;19930;-80
2022/08/03 14:07:29;;;;;;;;;;;27.50;99.90;;;;;;4981894;28;19930;-81
2022/08/03 14:09:55;;;;;;;;;;;27.50;99.90;;;;;;4947052;28;19930;-79
2022/08/03 14:12:22;;;;;;;;;;;27.50;99.90;;;;;;4956291;28;20021;-80
2022/08/03 14:14:49;;;;;;;;;;;27.40;99.90;;;;;;4973684;28;20392;-82
2022/08/03 14:17:15;;;;;;;;;;;27.40;99.90;;;;;;4966983;28;19984;-79
2022/08/03 14:19:41;;;;;;;;;;;27.40;99.90;;;;;;4955963;28;19938;-79
2022/08/03 14:22:10;;;;;;;;;;;27.40;99.90;;;;;;4973923;28;19985;-80
2022/08/03 14:24:35;;;;;;;;;;;27.40;99.90;;;;;;4956922;28;21406;-82
2022/08/03 14:27:04;;;;;;;;;;;27.40;99.90;;;;;;4955218;28;19956;-79
2022/08/03 14:29:51;;;;;;;;;;;27.40;99.90;;;;;;4953671;28;20020;-80
2022/08/03 14:32:19;;;;;;;;;;;27.30;99.90;;;;;;4970521;28;19933;-80
2022/08/03 14:34:45;;;;;;;;;;;27.30;99.90;;;;;;4953538;28;19930;-77
2022/08/03 14:37:10;;;;;;;;;;;27.30;99.90;;;;;;4954346;28;19926;-79
2022/08/03 14:39:38;;;;;;;;;;;27.30;99.90;;;;;;4939924;28;19929;-80
2022/08/03 14:42:07;;;;;;;;;;;27.20;99.90;;;;;;4957748;28;20013;-81
2022/08/03 14:44:33;;;;;;;;;;;27.20;99.90;;;;;;4943743;28;19933;-80
2022/08/03 14:46:58;;;;;;;;;;;27.20;99.90;;;;;;4957276;28;19956;-80
2022/08/03 14:49:46;;;;;;;;;;;27.30;99.90;;;;;;4965840;28;20380;-80
2022/08/03 14:52:13;;;;;;;;;;;27.30;99.90;;;;;;4957930;28;19976;-79
2022/08/03 14:54:39;;;;;;;;;;;27.20;99.90;;;;;;4957845;28;19930;-80
2022/08/03 14:57:04;;;;;;;;;;;27.20;99.90;;;;;;4971361;28;19941;-79
2022/08/03 14:59:30;;;;;;;;;;;27.20;99.90;;;;;;4947831;28;19925;-82
2022/08/03 15:01:56;;;;;;;;;;;27.20;99.90;;;;;;4968952;28;20295;-81
2022/08/03 15:04:22;;;;;;;;;;;27.10;99.90;;;;;;4941606;28;20335;-82
2022/08/03 15:06:53;;;;;;;;;;;27.00;99.90;;;;;;4941900;28;19936;-80
2022/08/03 15:09:50;;;;;;;;;;;27.00;99.90;;;;;;4969218;28;19929;-82
2022/08/03 15:12:22;;;;;;;;;;;27.00;99.90;;;;;;4942107;28;20008;-83
2022/08/03 15:14:48;;;;;;;;;;;27.00;99.90;;;;;;4957739;28;20280;-79
2022/08/03 15:17:13;;;;;;;;;;;27.00;99.90;;;;;;4972571;28;20014;-79
2022/08/03 15:19:40;;;;;;;;;;;27.00;99.90;;;;;;4956223;28;19937;-80
2022/08/03 15:22:05;;;;;;;;;;;27.00;99.90;;;;;;4990811;28;20329;-80
2022/08/03 15:24:31;;;;;;;;;;;27.00;99.90;;;;;;4956877;28;20387;-80
2022/08/03 15:26:58;;;;;;;;;;;27.00;99.90;;;;;;4941626;28;20296;-81
2022/08/03 15:29:24;;;;;;;;;;;27.00;99.90;;;;;;4960087;28;20054;-80
2022/08/03 15:31:50;;;;;;;;;;;27.00;99.90;;;;;;4956311;28;19926;-80
2022/08/03 15:34:22;;;;;;;;;;;27.00;99.90;;;;;;4950150;28;19932;-79
2022/08/03 15:36:53;;;;;;;;;;;27.00;99.90;;;;;;4978939;28;19976;-81
2022/08/03 15:39:19;;;;;;;;;;;27.00;99.90;;;;;;4944929;28;20023;-80
2022/08/03 15:41:47;;;;;;;;;;;27.00;99.90;;;;;;4948712;28;19933;-81
2022/08/03 15:44:17;;;;;;;;;;;27.00;99.90;;;;;;4973794;28;19933;-80
2022/08/03 15:46:44;;;;;;;;;;;27.00;99.90;;;;;;4970614;28;20292;-79
2022/08/03 15:49:10;;;;;;;;;;;26.90;99.90;;;;;;4972560;28;19930;-78
2022/08/03 15:51:37;;;;;;;;;;;26.90;99.90;;;;;;4985272;28;19925;-80
2022/08/03 15:54:03;;;;;;;;;;;26.90;99.90;;;;;;4983110;28;19960;-83
2022/08/03 15:56:29;;;;;;;;;;;26.80;99.90;;;;;;4945878;28;19926;-80
2022/08/03 15:58:58;;;;;;;;;;;26.80;99.90;;;;;;4977304;28;20000;-82